createdAt,value
2023-01-26T00:02:13.162Z,1.60
2023-01-26T00:04:41.307Z,1.66
2023-01-26T00:07:09.373Z,1.70
2023-01-26T00:09:37.523Z,1.73
2023-01-26T00:12:05.983Z,1.72
2023-01-26T00:14:50.360Z,1.71
2023-01-26T00:17:26.207Z,1.51
2023-01-26T00:19:56.361Z,1.47
2023-01-26T00:22:25.724Z,1.38
2023-01-26T00:24:53.830Z,1.37
2023-01-26T00:27:21.944Z,1.33
2023-01-26T00:29:51.345Z,1.27
2023-01-26T00:32:19.493Z,1.21
2023-01-26T00:34:47.493Z,1.40
2023-01-26T00:37:15.499Z,1.42
2023-01-26T00:39:43.610Z,1.74
2023-01-26T00:42:13.991Z,1.65
2023-01-26T00:44:44.227Z,1.47
2023-01-26T00:47:14.883Z,1.42
2023-01-26T00:49:43.133Z,1.61
2023-01-26T00:52:11.654Z,1.60
2023-01-26T00:54:40.061Z,1.55
2023-01-26T00:57:08.246Z,1.53
2023-01-26T00:59:36.340Z,1.51
2023-01-26T01:02:04.928Z,1.42
2023-01-26T01:04:34.589Z,1.62
2023-01-26T01:07:02.713Z,1.63
2023-01-26T01:09:30.858Z,1.73
2023-01-26T01:11:58.921Z,1.69
2023-01-26T01:14:27.057Z,1.57
2023-01-26T01:16:55.214Z,1.58
2023-01-26T01:19:23.234Z,1.57
2023-01-26T01:21:52.653Z,1.67
2023-01-26T01:24:20.865Z,1.76
2023-01-26T01:26:49.057Z,1.68
2023-01-26T01:29:17.163Z,1.66
2023-01-26T01:31:45.393Z,1.84
2023-01-26T01:34:13.511Z,1.74
2023-01-26T01:36:41.728Z,1.64
2023-01-26T01:39:11.254Z,1.66
2023-01-26T01:41:39.267Z,1.64
2023-01-26T01:44:15.598Z,1.66
2023-01-26T01:46:52.009Z,1.70
2023-01-26T01:49:24.172Z,1.73
2023-01-26T01:51:57.242Z,1.69
2023-01-26T01:54:31.610Z,1.66
2023-01-26T01:57:03.452Z,1.74
2023-01-26T01:59:33.939Z,1.77
2023-01-26T02:02:02.357Z,1.82
2023-01-26T02:04:30.879Z,1.86
2023-01-26T02:07:01.746Z,1.81
2023-01-26T02:10:00.197Z,1.64
2023-01-26T02:12:32.468Z,1.53
2023-01-26T02:15:02.493Z,1.49
2023-01-26T02:17:30.708Z,1.38
2023-01-26T02:20:05.682Z,1.46
2023-01-26T02:22:42.599Z,1.52
2023-01-26T02:25:30.140Z,1.50
2023-01-26T02:28:00.150Z,1.57
2023-01-26T02:30:29.716Z,1.56
2023-01-26T02:32:57.840Z,1.47
2023-01-26T02:35:25.855Z,1.39
2023-01-26T02:37:53.933Z,1.58
2023-01-26T02:40:32.217Z,1.43
2023-01-26T02:43:02.646Z,1.51
2023-01-26T02:45:33.289Z,1.62
2023-01-26T02:48:04.833Z,1.55
2023-01-26T02:50:32.504Z,1.67
2023-01-26T02:53:01.218Z,1.70
2023-01-26T02:55:28.922Z,1.63
2023-01-26T02:57:59.173Z,1.68
2023-01-26T03:00:30.466Z,1.62
2023-01-26T03:03:02.066Z,1.58
2023-01-26T03:05:30.406Z,1.38
2023-01-26T03:07:58.670Z,1.31
2023-01-26T03:10:27.260Z,1.40
2023-01-26T03:12:55.340Z,1.50
2023-01-26T03:15:41.100Z,1.39
2023-01-26T03:18:30.182Z,1.37
2023-01-26T03:21:17.714Z,1.37
2023-01-26T03:24:03.146Z,1.41
2023-01-26T03:26:48.640Z,1.48
2023-01-26T03:29:17.120Z,1.32
2023-01-26T03:31:45.256Z,1.22
2023-01-26T03:34:14.650Z,1.11
2023-01-26T03:36:43.414Z,1.07
2023-01-26T03:39:31.569Z,1.01
2023-01-26T03:42:17.270Z,1.06
2023-01-26T03:45:02.708Z,1.05
2023-01-26T03:47:49.769Z,1.00
2023-01-26T03:50:37.107Z,1.09
2023-01-26T03:53:30.831Z,1.09
2023-01-26T03:56:16.035Z,1.14
2023-01-26T03:58:44.045Z,1.14
2023-01-26T04:01:20.197Z,1.19
2023-01-26T04:04:07.042Z,1.19
2023-01-26T04:06:54.900Z,1.23
2023-01-26T04:09:23.353Z,1.27
2023-01-26T04:11:51.471Z,1.25
2023-01-26T04:14:50.077Z,1.30
2023-01-26T04:17:36.547Z,1.32
2023-01-26T04:20:23.240Z,1.34
2023-01-26T04:22:52.886Z,1.48
2023-01-26T04:25:22.867Z,1.43
2023-01-26T04:27:51.391Z,1.28
2023-01-26T04:30:20.325Z,1.15
2023-01-26T04:32:48.403Z,1.08
2023-01-26T04:35:16.535Z,1.29
2023-01-26T04:37:44.665Z,1.26
2023-01-26T04:40:14.984Z,1.25
2023-01-26T04:42:43.195Z,1.38
2023-01-26T04:45:11.931Z,1.49
2023-01-26T04:47:40.409Z,1.48
2023-01-26T04:50:10.554Z,1.48
2023-01-26T04:52:38.835Z,1.48
2023-01-26T04:55:07.315Z,1.51
2023-01-26T04:57:36.876Z,1.48
2023-01-26T05:00:05.994Z,1.58
2023-01-26T05:02:34.025Z,1.55
2023-01-26T05:05:02.166Z,1.42
2023-01-26T05:07:30.235Z,1.53
2023-01-26T05:09:58.292Z,1.52
2023-01-26T05:12:35.661Z,1.51
2023-01-26T05:15:05.613Z,1.64
2023-01-26T05:17:33.674Z,1.68
2023-01-26T05:20:01.750Z,1.62
2023-01-26T05:22:29.809Z,1.63
2023-01-26T05:24:57.947Z,1.46
2023-01-26T05:27:26.024Z,1.31
2023-01-26T05:29:55.309Z,1.14
2023-01-26T05:32:24.807Z,0.87
2023-01-26T05:34:52.832Z,0.81
2023-01-26T05:37:21.056Z,0.76
2023-01-26T05:39:49.256Z,0.77
2023-01-26T05:42:17.492Z,0.82
2023-01-26T05:44:45.668Z,0.73
2023-01-26T05:47:13.904Z,0.71
2023-01-26T05:49:45.839Z,0.69
2023-01-26T05:52:17.110Z,0.74
2023-01-26T05:54:45.337Z,0.80
2023-01-26T05:57:13.613Z,0.95
2023-01-26T05:59:44.084Z,1.02
2023-01-26T06:02:13.691Z,0.86
2023-01-26T06:04:43.268Z,0.63
2023-01-26T06:07:13.711Z,0.59
2023-01-26T06:09:42.157Z,0.65
2023-01-26T06:12:17.011Z,0.83
2023-01-26T06:14:47.244Z,0.78
2023-01-26T06:17:17.340Z,0.89
2023-01-26T06:19:46.976Z,0.91
2023-01-26T06:22:16.125Z,0.85
2023-01-26T06:24:44.399Z,0.76
2023-01-26T06:27:14.838Z,0.72
2023-01-26T06:29:43.134Z,0.79
2023-01-26T06:32:11.604Z,0.79
2023-01-26T06:34:40.000Z,0.78
2023-01-26T06:37:09.557Z,0.84
2023-01-26T06:39:37.761Z,0.83
2023-01-26T06:42:06.339Z,0.82
2023-01-26T06:44:34.454Z,0.96
2023-01-26T06:47:02.522Z,1.02
2023-01-26T06:49:30.631Z,0.92
2023-01-26T06:52:04.589Z,0.85
2023-01-26T06:54:33.984Z,0.98
2023-01-26T06:57:02.347Z,1.03
2023-01-26T06:59:30.507Z,1.20
2023-01-26T07:01:58.657Z,1.10
2023-01-26T07:04:28.017Z,1.02
2023-01-26T07:06:56.254Z,0.96
2023-01-26T07:09:24.385Z,0.88
2023-01-26T07:11:53.831Z,1.02
2023-01-26T07:14:23.163Z,0.98
2023-01-26T07:16:51.269Z,1.00
2023-01-26T07:19:19.310Z,1.11
2023-01-26T07:21:48.811Z,1.07
2023-01-26T07:24:17.026Z,1.01
2023-01-26T07:26:45.435Z,0.95
2023-01-26T07:29:15.095Z,1.02
2023-01-26T07:31:44.798Z,1.08
2023-01-26T07:34:13.313Z,1.15
2023-01-26T07:36:41.899Z,1.19
2023-01-26T07:39:10.221Z,1.33
2023-01-26T07:41:38.402Z,1.48
2023-01-26T07:44:11.106Z,1.86
2023-01-26T07:46:41.727Z,2.06
2023-01-26T07:49:12.463Z,2.14
2023-01-26T07:51:41.115Z,2.32
2023-01-26T07:54:12.978Z,2.35
2023-01-26T07:56:41.144Z,2.38
2023-01-26T07:59:11.798Z,2.19
2023-01-26T08:01:41.269Z,2.30
2023-01-26T08:04:09.439Z,2.29
2023-01-26T08:06:37.673Z,2.27
2023-01-26T08:09:06.541Z,2.34
2023-01-26T08:11:34.964Z,2.29
2023-01-26T08:14:03.206Z,2.30
2023-01-26T08:16:31.486Z,2.19
2023-01-26T08:19:01.253Z,2.09
2023-01-26T08:21:29.826Z,2.01
2023-01-26T08:24:02.035Z,1.65
2023-01-26T08:26:30.602Z,1.52
2023-01-26T08:28:59.112Z,1.23
2023-01-26T08:31:28.418Z,1.39
2023-01-26T08:33:57.883Z,1.51
2023-01-26T08:36:28.811Z,1.58
2023-01-26T08:38:57.174Z,1.66
2023-01-26T08:41:25.416Z,1.60
2023-01-26T08:43:54.241Z,1.24
2023-01-26T08:46:22.596Z,1.38
2023-01-26T08:48:50.708Z,1.19
2023-01-26T08:51:19.051Z,1.05
2023-01-26T08:53:48.684Z,0.94
2023-01-26T08:56:16.847Z,1.03
2023-01-26T08:58:44.951Z,1.10
2023-01-26T09:01:15.223Z,1.05
2023-01-26T09:03:43.644Z,1.03
2023-01-26T09:06:15.067Z,1.10
2023-01-26T09:08:43.430Z,1.05
2023-01-26T09:11:13.394Z,1.00
2023-01-26T09:13:45.404Z,0.95
2023-01-26T09:16:18.849Z,0.98
2023-01-26T09:18:50.100Z,0.93
2023-01-26T09:21:18.960Z,1.02
2023-01-26T09:23:47.034Z,1.39
2023-01-26T09:26:16.636Z,1.44
2023-01-26T09:28:44.692Z,1.19
2023-01-26T09:31:13.645Z,1.10
2023-01-26T09:33:44.683Z,0.98
2023-01-26T09:36:14.039Z,1.08
2023-01-26T09:38:42.518Z,1.09
2023-01-26T09:41:27.149Z,1.07
2023-01-26T09:43:58.601Z,0.95
2023-01-26T09:46:30.815Z,0.91
2023-01-26T09:49:07.316Z,0.83
2023-01-26T09:51:38.990Z,1.00
2023-01-26T09:54:17.159Z,0.94
2023-01-26T09:56:47.141Z,1.15
2023-01-26T09:59:25.538Z,0.92
2023-01-26T10:02:01.252Z,0.99
2023-01-26T10:04:36.789Z,0.89
2023-01-26T10:07:11.148Z,0.88
2023-01-26T10:09:41.902Z,0.81
2023-01-26T10:12:20.040Z,0.88
2023-01-26T10:14:53.973Z,0.86
2023-01-26T10:17:29.680Z,0.89
2023-01-26T10:20:03.885Z,1.03
2023-01-26T10:22:40.580Z,1.32
2023-01-26T10:25:16.389Z,1.51
2023-01-26T10:27:47.127Z,1.58
2023-01-26T10:30:16.987Z,1.79
2023-01-26T10:32:46.995Z,1.62
2023-01-26T10:35:20.879Z,1.66
2023-01-26T10:37:49.601Z,1.77
2023-01-26T10:40:18.774Z,1.68
2023-01-26T10:42:57.734Z,1.73
2023-01-26T10:45:31.268Z,1.72
2023-01-26T10:48:05.462Z,1.56
2023-01-26T10:50:34.194Z,1.41
2023-01-26T10:53:04.721Z,1.33
2023-01-26T10:55:33.852Z,1.46
2023-01-26T10:58:03.623Z,1.66
2023-01-26T11:00:34.222Z,1.63
2023-01-26T11:03:08.130Z,1.78
2023-01-26T11:05:39.778Z,1.75
2023-01-26T11:08:36.157Z,1.74
2023-01-26T11:11:07.109Z,1.77
2023-01-26T11:13:35.560Z,1.76
2023-01-26T11:16:13.255Z,1.62
2023-01-26T11:18:50.442Z,1.63
2023-01-26T11:21:27.934Z,1.69
2023-01-26T11:24:06.399Z,1.45
2023-01-26T11:27:04.919Z,1.32
2023-01-26T11:29:58.862Z,1.19
2023-01-26T11:32:36.101Z,1.01
2023-01-26T11:35:16.611Z,0.96
2023-01-26T11:37:47.596Z,1.00
2023-01-26T11:40:39.350Z,1.16
2023-01-26T11:43:50.901Z,1.04
2023-01-26T11:46:33.285Z,1.03
2023-01-26T11:49:15.934Z,1.48
2023-01-26T11:51:56.905Z,1.45
2023-01-26T11:54:36.217Z,1.64
2023-01-26T11:57:20.316Z,1.74
2023-01-26T11:59:54.684Z,1.81
2023-01-26T12:02:31.281Z,1.86
2023-01-26T12:05:05.997Z,1.84
2023-01-26T12:07:54.711Z,1.73
2023-01-26T12:10:29.282Z,1.58
2023-01-26T12:13:06.675Z,1.71
2023-01-26T12:15:37.922Z,1.73
2023-01-26T12:18:16.611Z,1.77
2023-01-26T12:20:47.440Z,1.79
2023-01-26T12:23:25.873Z,1.66
2023-01-26T12:25:59.383Z,1.56
2023-01-26T12:28:33.014Z,1.75
2023-01-26T12:31:09.273Z,1.87
2023-01-26T12:33:38.659Z,1.84
2023-01-26T12:36:29.340Z,1.84
2023-01-26T12:39:10.222Z,1.87
2023-01-26T12:42:00.570Z,1.94
2023-01-26T12:44:38.623Z,1.96
2023-01-26T12:47:14.064Z,1.77
2023-01-26T12:49:48.376Z,1.82
2023-01-26T12:52:25.224Z,1.93
2023-01-26T12:55:00.046Z,1.88
2023-01-26T12:57:35.551Z,1.88
2023-01-26T13:00:10.431Z,2.07
2023-01-26T13:02:48.073Z,1.95
2023-01-26T13:05:29.621Z,1.73
2023-01-26T13:07:58.329Z,1.52
2023-01-26T13:10:31.205Z,1.32
2023-01-26T13:13:01.338Z,1.19
2023-01-26T13:15:33.124Z,1.32
2023-01-26T13:18:02.811Z,1.67
2023-01-26T13:20:47.452Z,1.53
2023-01-26T13:23:52.398Z,1.30
2023-01-26T13:26:25.116Z,1.34
2023-01-26T13:28:54.498Z,1.52
2023-01-26T13:31:35.075Z,1.85
2023-01-26T13:34:10.220Z,1.87
2023-01-26T13:36:41.701Z,1.91
2023-01-26T13:39:16.834Z,1.90
2023-01-26T13:41:47.519Z,1.91
2023-01-26T13:44:21.620Z,2.02
2023-01-26T13:46:57.792Z,2.09
2023-01-26T13:49:28.139Z,2.07
2023-01-26T13:51:56.279Z,2.01
2023-01-26T13:54:27.063Z,1.88
2023-01-26T13:57:03.547Z,1.90
2023-01-26T13:59:33.225Z,1.95
2023-01-26T14:02:02.905Z,1.96
2023-01-26T14:04:32.503Z,1.93
2023-01-26T14:07:04.810Z,1.98
2023-01-26T14:09:35.280Z,2.01
2023-01-26T14:12:06.391Z,2.20
2023-01-26T14:14:38.191Z,2.20
2023-01-26T14:17:25.771Z,1.99
2023-01-26T14:19:54.186Z,1.88
2023-01-26T14:22:22.716Z,2.03
2023-01-26T14:24:52.378Z,2.08
2023-01-26T14:27:34.035Z,1.83
2023-01-26T14:30:02.424Z,1.91
2023-01-26T14:32:33.015Z,1.79
2023-01-26T14:35:01.827Z,1.65
2023-01-26T14:37:30.031Z,1.59
2023-01-26T14:40:12.225Z,1.64
2023-01-26T14:42:42.640Z,1.60
2023-01-26T14:45:14.376Z,1.66
2023-01-26T14:47:45.443Z,1.74
2023-01-26T14:50:20.718Z,1.79
2023-01-26T14:52:49.284Z,1.78
2023-01-26T14:55:23.296Z,1.83
2023-01-26T14:57:54.107Z,1.87
2023-01-26T15:00:27.262Z,1.84
2023-01-26T15:02:59.939Z,1.79
2023-01-26T15:05:34.391Z,1.78
2023-01-26T15:08:04.619Z,1.83
2023-01-26T15:10:37.296Z,1.82
2023-01-26T15:13:09.625Z,1.83
2023-01-26T15:15:41.047Z,2.01
2023-01-26T15:18:21.593Z,2.16
2023-01-26T15:21:00.731Z,1.94
2023-01-26T15:23:33.244Z,1.81
2023-01-26T15:26:09.419Z,1.79
2023-01-26T15:28:39.941Z,1.82
2023-01-26T15:31:12.129Z,1.76
2023-01-26T15:33:52.866Z,1.71
2023-01-26T15:36:35.455Z,1.62
2023-01-26T15:39:13.950Z,1.53
2023-01-26T15:41:42.392Z,1.51
2023-01-26T15:44:17.155Z,1.41
2023-01-26T15:46:45.673Z,1.31
2023-01-26T15:49:20.028Z,1.25
2023-01-26T15:51:48.194Z,1.23
2023-01-26T15:54:16.971Z,1.22
2023-01-26T15:56:45.273Z,1.22
2023-01-26T15:59:16.349Z,1.22
2023-01-26T16:01:44.734Z,1.20
2023-01-26T16:04:15.144Z,1.19
2023-01-26T16:06:43.393Z,1.09
2023-01-26T16:09:11.448Z,1.06
2023-01-26T16:11:45.659Z,1.03
2023-01-26T16:14:15.573Z,1.04
2023-01-26T16:16:43.934Z,1.00
2023-01-26T16:19:20.528Z,0.93
2023-01-26T16:21:56.027Z,0.93
2023-01-26T16:24:24.387Z,0.92
2023-01-26T16:26:52.427Z,0.91
2023-01-26T16:29:21.629Z,0.80
2023-01-26T16:31:49.933Z,0.82
2023-01-26T16:34:18.217Z,0.77
2023-01-26T16:36:46.443Z,0.79
2023-01-26T16:39:17.276Z,0.83
2023-01-26T16:41:48.138Z,0.84
2023-01-26T16:44:19.664Z,0.84
2023-01-26T16:46:47.752Z,0.79
2023-01-26T16:49:16.505Z,0.81
2023-01-26T16:51:45.541Z,0.81
2023-01-26T16:54:15.397Z,0.77
2023-01-26T16:56:44.426Z,0.76
2023-01-26T16:59:12.650Z,0.74
2023-01-26T17:01:41.082Z,0.74
2023-01-26T17:04:11.717Z,0.73
2023-01-26T17:06:40.149Z,0.67
2023-01-26T17:09:10.565Z,0.64
2023-01-26T17:11:41.208Z,0.60
2023-01-26T17:14:10.830Z,0.57
2023-01-26T17:16:39.179Z,0.54
2023-01-26T17:19:09.231Z,0.55
2023-01-26T17:21:38.460Z,0.52
2023-01-26T17:24:07.762Z,0.48
2023-01-26T17:26:36.043Z,0.49
2023-01-26T17:29:05.648Z,0.48
2023-01-26T17:31:34.367Z,0.50
2023-01-26T17:34:02.504Z,0.47
2023-01-26T17:36:31.001Z,0.44
2023-01-26T17:38:59.445Z,0.50
2023-01-26T17:41:29.344Z,0.47
2023-01-26T17:44:00.847Z,0.47
2023-01-26T17:46:30.617Z,0.44
2023-01-26T17:48:58.970Z,0.44
2023-01-26T17:51:27.131Z,0.42
2023-01-26T17:53:56.500Z,0.44
2023-01-26T17:56:25.153Z,0.46
2023-01-26T17:58:55.364Z,0.38
2023-01-26T18:01:25.267Z,0.41
2023-01-26T18:03:55.211Z,0.45
2023-01-26T18:06:24.549Z,0.44
2023-01-26T18:08:52.798Z,0.40
2023-01-26T18:11:22.453Z,0.37
2023-01-26T18:13:51.840Z,0.39
2023-01-26T18:16:22.920Z,0.40
2023-01-26T18:18:57.417Z,0.36
2023-01-26T18:21:27.546Z,0.36
2023-01-26T18:23:57.970Z,0.36
2023-01-26T18:26:28.531Z,0.36
2023-01-26T18:28:56.906Z,0.35
2023-01-26T18:31:26.484Z,0.34
2023-01-26T18:33:54.868Z,0.30
2023-01-26T18:36:24.561Z,0.33
2023-01-26T18:38:55.165Z,0.31
2023-01-26T18:41:24.606Z,0.32
2023-01-26T18:43:58.341Z,0.34
2023-01-26T18:46:27.717Z,0.29
2023-01-26T18:49:00.786Z,0.33
2023-01-26T18:51:32.481Z,0.32
2023-01-26T18:54:00.989Z,0.33
2023-01-26T18:56:32.033Z,0.35
2023-01-26T18:59:01.133Z,0.37
2023-01-26T19:01:29.449Z,0.36
2023-01-26T19:03:59.091Z,0.33
2023-01-26T19:06:28.574Z,0.33
2023-01-26T19:09:00.995Z,0.31
2023-01-26T19:11:32.220Z,0.31
2023-01-26T19:14:01.397Z,0.32
2023-01-26T19:16:30.856Z,0.37
2023-01-26T19:18:59.300Z,0.34
2023-01-26T19:21:28.778Z,0.27
2023-01-26T19:24:02.641Z,0.32
2023-01-26T19:26:30.974Z,0.30
2023-01-26T19:28:59.845Z,0.26
2023-01-26T19:31:29.405Z,0.31
2023-01-26T19:33:59.371Z,0.29
2023-01-26T19:36:29.618Z,0.27
2023-01-26T19:38:59.868Z,0.27
2023-01-26T19:41:28.831Z,0.25
2023-01-26T19:43:56.989Z,0.25
2023-01-26T19:46:25.626Z,0.17
2023-01-26T19:48:53.812Z,0.25
2023-01-26T19:51:24.015Z,0.16
2023-01-26T19:53:55.768Z,0.18
2023-01-26T19:56:27.041Z,0.22
2023-01-26T19:58:56.705Z,0.25
2023-01-26T20:01:26.293Z,0.23
2023-01-26T20:03:58.884Z,0.14
2023-01-26T20:06:29.240Z,0.18
2023-01-26T20:08:57.605Z,0.14
2023-01-26T20:11:29.627Z,0.17
2023-01-26T20:13:58.606Z,0.19
2023-01-26T20:16:28.331Z,0.27
2023-01-26T20:18:56.718Z,0.25
2023-01-26T20:21:25.625Z,0.26
2023-01-26T20:23:55.657Z,0.29
2023-01-26T20:26:25.423Z,0.24
2023-01-26T20:28:58.087Z,0.25
2023-01-26T20:31:27.772Z,0.27
2023-01-26T20:33:56.498Z,0.22
2023-01-26T20:36:27.334Z,0.21
2023-01-26T20:38:55.886Z,0.24
2023-01-26T20:41:25.917Z,0.22
2023-01-26T20:44:00.985Z,0.24
2023-01-26T20:46:31.607Z,0.26
2023-01-26T20:48:59.952Z,0.24
2023-01-26T20:51:30.829Z,0.25
2023-01-26T20:53:59.356Z,0.27
2023-01-26T20:56:27.895Z,0.30
2023-01-26T20:58:58.097Z,0.25
2023-01-26T21:01:26.959Z,0.35
2023-01-26T21:03:55.955Z,0.38
2023-01-26T21:06:26.312Z,0.33
2023-01-26T21:08:56.178Z,0.24
2023-01-26T21:11:25.987Z,0.33
2023-01-26T21:13:59.994Z,0.35
2023-01-26T21:16:29.469Z,0.34
2023-01-26T21:18:57.855Z,0.26
2023-01-26T21:21:26.307Z,0.18
2023-01-26T21:23:54.598Z,0.21
2023-01-26T21:26:24.512Z,0.26
2023-01-26T21:28:53.729Z,0.31
2023-01-26T21:31:25.851Z,0.33
2023-01-26T21:33:54.794Z,0.39
2023-01-26T21:36:24.800Z,0.45
2023-01-26T21:38:54.505Z,0.45
2023-01-26T21:41:42.163Z,0.37
2023-01-26T21:44:12.135Z,0.41
2023-01-26T21:46:42.133Z,0.36
2023-01-26T21:49:11.588Z,0.43
2023-01-26T21:51:57.068Z,0.41
2023-01-26T21:54:25.475Z,0.44
2023-01-26T21:56:53.742Z,0.43
2023-01-26T21:59:20.799Z,0.46
2023-01-26T22:01:51.944Z,0.49
2023-01-26T22:04:22.670Z,0.48
2023-01-26T22:06:52.283Z,0.46
2023-01-26T22:09:21.452Z,0.41
2023-01-26T22:11:50.750Z,0.43
2023-01-26T22:14:20.972Z,0.40
2023-01-26T22:16:50.636Z,0.43
2023-01-26T22:19:18.838Z,0.46
2023-01-26T22:21:46.964Z,0.43
2023-01-26T22:24:16.008Z,0.40
2023-01-26T22:26:44.185Z,0.44
2023-01-26T22:29:13.302Z,0.44
2023-01-26T22:31:43.064Z,0.42
2023-01-26T22:34:12.797Z,0.37
2023-01-26T22:36:41.498Z,0.43
2023-01-26T22:39:09.974Z,0.41
2023-01-26T22:41:38.260Z,0.53
2023-01-26T22:44:06.609Z,0.55
2023-01-26T22:46:35.103Z,0.61
2023-01-26T22:49:04.956Z,0.60
2023-01-26T22:51:37.564Z,0.54
2023-01-26T22:54:06.399Z,0.58
2023-01-26T22:56:34.870Z,0.59
2023-01-26T22:59:03.275Z,0.56
2023-01-26T23:01:33.534Z,0.52
2023-01-26T23:04:02.601Z,0.49
2023-01-26T23:06:31.409Z,0.46
2023-01-26T23:09:04.784Z,0.45
2023-01-26T23:11:33.443Z,0.49
2023-01-26T23:14:02.024Z,0.51
2023-01-26T23:16:31.054Z,0.52
2023-01-26T23:19:00.117Z,0.54
2023-01-26T23:21:29.192Z,0.56
2023-01-26T23:23:57.340Z,0.58
2023-01-26T23:26:29.340Z,0.54
2023-01-26T23:28:57.728Z,0.58
2023-01-26T23:31:25.808Z,0.60
2023-01-26T23:33:53.945Z,0.63
2023-01-26T23:36:22.159Z,0.63
2023-01-26T23:38:50.395Z,0.63
2023-01-26T23:41:18.877Z,0.61
2023-01-26T23:43:48.405Z,0.60
2023-01-26T23:46:16.493Z,0.59
2023-01-26T23:48:44.609Z,0.60
2023-01-26T23:51:13.541Z,0.61
2023-01-26T23:53:42.121Z,0.62
2023-01-26T23:56:12.024Z,0.65
2023-01-26T23:58:40.280Z,0.66
